sensor_id;sensor_type;location;lat;lon;timestamp;P1;durP1;ratioP1;P2;durP2;ratioP2
6111;SDS011;3086;48.802;9.394;2023-05-07T00:02:08;3.30;;;3.00;;
6111;SDS011;3086;48.802;9.394;2023-05-07T00:05:30;3.20;;;2.80;;
6111;SDS011;3086;48.802;9.394;2023-05-07T00:08:52;3.40;;;3.10;;
6111;SDS011;3086;48.802;9.394;2023-05-07T00:12:13;3.33;;;3.03;;
6111;SDS011;3086;48.802;9.394;2023-05-07T00:15:36;4.23;;;2.83;;
6111;SDS011;3086;48.802;9.394;2023-05-07T00:18:58;6.47;;;3.43;;
6111;SDS011;3086;48.802;9.394;2023-05-07T00:22:20;4.37;;;3.97;;
6111;SDS011;3086;48.802;9.394;2023-05-07T00:25:41;4.77;;;3.57;;
6111;SDS011;3086;48.802;9.394;2023-05-07T00:29:02;4.70;;;4.30;;
6111;SDS011;3086;48.802;9.394;2023-05-07T00:32:25;2.90;;;2.70;;
6111;SDS011;3086;48.802;9.394;2023-05-07T00:35:47;2.87;;;2.67;;
6111;SDS011;3086;48.802;9.394;2023-05-07T00:39:09;2.97;;;2.70;;
6111;SDS011;3086;48.802;9.394;2023-05-07T00:42:30;3.47;;;2.93;;
6111;SDS011;3086;48.802;9.394;2023-05-07T00:45:52;2.90;;;2.70;;
6111;SDS011;3086;48.802;9.394;2023-05-07T00:49:16;3.80;;;3.00;;
6111;SDS011;3086;48.802;9.394;2023-05-07T00:52:37;3.37;;;3.17;;
6111;SDS011;3086;48.802;9.394;2023-05-07T00:55:59;3.40;;;3.10;;
6111;SDS011;3086;48.802;9.394;2023-05-07T00:59:22;4.77;;;3.03;;
6111;SDS011;3086;48.802;9.394;2023-05-07T01:02:44;4.40;;;3.00;;
6111;SDS011;3086;48.802;9.394;2023-05-07T01:06:07;3.67;;;3.13;;
6111;SDS011;3086;48.802;9.394;2023-05-07T01:09:32;3.70;;;3.30;;
6111;SDS011;3086;48.802;9.394;2023-05-07T01:12:55;4.30;;;2.47;;
6111;SDS011;3086;48.802;9.394;2023-05-07T01:16:16;3.10;;;2.80;;
6111;SDS011;3086;48.802;9.394;2023-05-07T01:19:38;4.40;;;2.97;;
6111;SDS011;3086;48.802;9.394;2023-05-07T01:23:01;3.17;;;2.87;;
6111;SDS011;3086;48.802;9.394;2023-05-07T01:26:23;2.63;;;2.43;;
6111;SDS011;3086;48.802;9.394;2023-05-07T01:29:44;5.50;;;2.80;;
6111;SDS011;3086;48.802;9.394;2023-05-07T01:33:08;4.40;;;3.03;;
6111;SDS011;3086;48.802;9.394;2023-05-07T01:36:30;3.40;;;2.70;;
6111;SDS011;3086;48.802;9.394;2023-05-07T01:39:54;3.40;;;2.90;;
6111;SDS011;3086;48.802;9.394;2023-05-07T01:43:15;3.67;;;3.07;;
6111;SDS011;3086;48.802;9.394;2023-05-07T01:46:37;3.57;;;3.10;;
6111;SDS011;3086;48.802;9.394;2023-05-07T01:49:58;3.13;;;2.87;;
6111;SDS011;3086;48.802;9.394;2023-05-07T01:53:20;4.43;;;2.63;;
6111;SDS011;3086;48.802;9.394;2023-05-07T01:56:43;3.30;;;2.87;;
6111;SDS011;3086;48.802;9.394;2023-05-07T02:00:05;4.23;;;2.93;;
6111;SDS011;3086;48.802;9.394;2023-05-07T02:03:28;3.83;;;3.00;;
6111;SDS011;3086;48.802;9.394;2023-05-07T02:06:50;3.87;;;3.10;;
6111;SDS011;3086;48.802;9.394;2023-05-07T02:10:12;3.07;;;2.80;;
6111;SDS011;3086;48.802;9.394;2023-05-07T02:13:35;3.83;;;2.87;;
6111;SDS011;3086;48.802;9.394;2023-05-07T02:16:57;3.00;;;2.70;;
6111;SDS011;3086;48.802;9.394;2023-05-07T02:20:18;5.47;;;3.27;;
6111;SDS011;3086;48.802;9.394;2023-05-07T02:23:40;4.30;;;2.90;;
6111;SDS011;3086;48.802;9.394;2023-05-07T02:27:01;5.13;;;2.80;;
6111;SDS011;3086;48.802;9.394;2023-05-07T02:30:24;4.00;;;2.93;;
6111;SDS011;3086;48.802;9.394;2023-05-07T02:33:46;3.00;;;2.80;;
6111;SDS011;3086;48.802;9.394;2023-05-07T02:37:07;4.50;;;2.90;;
6111;SDS011;3086;48.802;9.394;2023-05-07T02:40:29;4.63;;;3.03;;
6111;SDS011;3086;48.802;9.394;2023-05-07T02:43:53;3.23;;;2.93;;
6111;SDS011;3086;48.802;9.394;2023-05-07T02:47:16;4.17;;;2.80;;
6111;SDS011;3086;48.802;9.394;2023-05-07T02:50:37;3.93;;;2.60;;
6111;SDS011;3086;48.802;9.394;2023-05-07T02:53:59;3.27;;;3.00;;
6111;SDS011;3086;48.802;9.394;2023-05-07T02:57:21;5.13;;;2.67;;
6111;SDS011;3086;48.802;9.394;2023-05-07T03:00:42;3.50;;;2.90;;
6111;SDS011;3086;48.802;9.394;2023-05-07T03:04:05;3.70;;;2.80;;
6111;SDS011;3086;48.802;9.394;2023-05-07T03:07:27;2.90;;;2.70;;
6111;SDS011;3086;48.802;9.394;2023-05-07T03:10:48;4.70;;;3.00;;
6111;SDS011;3086;48.802;9.394;2023-05-07T03:14:10;3.43;;;2.70;;
6111;SDS011;3086;48.802;9.394;2023-05-07T03:17:31;6.07;;;3.13;;
6111;SDS011;3086;48.802;9.394;2023-05-07T03:20:54;5.27;;;2.60;;
6111;SDS011;3086;48.802;9.394;2023-05-07T03:24:16;3.13;;;2.90;;
6111;SDS011;3086;48.802;9.394;2023-05-07T03:27:37;6.50;;;3.60;;
6111;SDS011;3086;48.802;9.394;2023-05-07T03:30:59;3.50;;;3.20;;
6111;SDS011;3086;48.802;9.394;2023-05-07T03:34:20;3.03;;;2.70;;
6111;SDS011;3086;48.802;9.394;2023-05-07T03:37:44;3.10;;;2.90;;
6111;SDS011;3086;48.802;9.394;2023-05-07T03:41:05;3.47;;;3.17;;
6111;SDS011;3086;48.802;9.394;2023-05-07T03:44:27;5.00;;;3.10;;
6111;SDS011;3086;48.802;9.394;2023-05-07T03:47:48;7.30;;;2.77;;
6111;SDS011;3086;48.802;9.394;2023-05-07T03:51:10;4.30;;;3.00;;
6111;SDS011;3086;48.802;9.394;2023-05-07T03:54:33;3.37;;;3.07;;
6111;SDS011;3086;48.802;9.394;2023-05-07T03:57:54;6.87;;;3.10;;
6111;SDS011;3086;48.802;9.394;2023-05-07T04:01:16;3.30;;;2.80;;
6111;SDS011;3086;48.802;9.394;2023-05-07T04:04:38;3.27;;;2.97;;
6111;SDS011;3086;48.802;9.394;2023-05-07T04:07:59;3.70;;;3.00;;
6111;SDS011;3086;48.802;9.394;2023-05-07T04:11:22;3.67;;;3.10;;
6111;SDS011;3086;48.802;9.394;2023-05-07T04:14:44;3.47;;;2.97;;
6111;SDS011;3086;48.802;9.394;2023-05-07T04:18:05;3.63;;;3.17;;
6111;SDS011;3086;48.802;9.394;2023-05-07T04:21:27;3.30;;;2.90;;
6111;SDS011;3086;48.802;9.394;2023-05-07T04:24:48;3.30;;;3.00;;
6111;SDS011;3086;48.802;9.394;2023-05-07T04:28:11;3.50;;;2.93;;
6111;SDS011;3086;48.802;9.394;2023-05-07T04:31:33;2.97;;;2.77;;
6111;SDS011;3086;48.802;9.394;2023-05-07T04:34:55;3.00;;;2.57;;
6111;SDS011;3086;48.802;9.394;2023-05-07T04:38:17;3.10;;;2.80;;
6111;SDS011;3086;48.802;9.394;2023-05-07T04:41:38;6.30;;;2.63;;
6111;SDS011;3086;48.802;9.394;2023-05-07T04:45:01;3.10;;;2.80;;
6111;SDS011;3086;48.802;9.394;2023-05-07T04:48:24;3.50;;;2.60;;
6111;SDS011;3086;48.802;9.394;2023-05-07T04:51:46;2.80;;;2.60;;
6111;SDS011;3086;48.802;9.394;2023-05-07T04:55:08;3.00;;;2.70;;
6111;SDS011;3086;48.802;9.394;2023-05-07T04:58:30;3.23;;;2.57;;
6111;SDS011;3086;48.802;9.394;2023-05-07T05:01:53;2.73;;;2.53;;
6111;SDS011;3086;48.802;9.394;2023-05-07T05:05:14;2.83;;;2.50;;
6111;SDS011;3086;48.802;9.394;2023-05-07T05:08:36;4.90;;;2.63;;
6111;SDS011;3086;48.802;9.394;2023-05-07T05:11:57;4.33;;;2.40;;
6111;SDS011;3086;48.802;9.394;2023-05-07T05:15:19;4.30;;;2.30;;
6111;SDS011;3086;48.802;9.394;2023-05-07T05:18:41;2.90;;;2.70;;
6111;SDS011;3086;48.802;9.394;2023-05-07T05:22:03;2.70;;;2.50;;
6111;SDS011;3086;48.802;9.394;2023-05-07T05:25:24;5.00;;;2.87;;
6111;SDS011;3086;48.802;9.394;2023-05-07T05:28:46;2.80;;;2.60;;
6111;SDS011;3086;48.802;9.394;2023-05-07T05:32:07;3.73;;;2.60;;
6111;SDS011;3086;48.802;9.394;2023-05-07T05:35:30;2.40;;;2.30;;
6111;SDS011;3086;48.802;9.394;2023-05-07T05:38:52;6.17;;;2.60;;
6111;SDS011;3086;48.802;9.394;2023-05-07T05:42:14;2.80;;;2.60;;
6111;SDS011;3086;48.802;9.394;2023-05-07T05:45:35;3.43;;;2.67;;
6111;SDS011;3086;48.802;9.394;2023-05-07T05:48:57;2.70;;;2.50;;
6111;SDS011;3086;48.802;9.394;2023-05-07T05:52:21;4.33;;;2.73;;
6111;SDS011;3086;48.802;9.394;2023-05-07T05:55:43;2.40;;;2.20;;
6111;SDS011;3086;48.802;9.394;2023-05-07T05:59:05;3.87;;;2.50;;
6111;SDS011;3086;48.802;9.394;2023-05-07T06:02:26;2.40;;;2.20;;
6111;SDS011;3086;48.802;9.394;2023-05-07T06:05:48;2.90;;;2.30;;
6111;SDS011;3086;48.802;9.394;2023-05-07T06:09:11;3.70;;;2.47;;
6111;SDS011;3086;48.802;9.394;2023-05-07T06:12:33;2.80;;;2.37;;
6111;SDS011;3086;48.802;9.394;2023-05-07T06:15:54;4.67;;;2.50;;
6111;SDS011;3086;48.802;9.394;2023-05-07T06:19:16;3.80;;;2.97;;
6111;SDS011;3086;48.802;9.394;2023-05-07T06:22:42;2.63;;;2.43;;
6111;SDS011;3086;48.802;9.394;2023-05-07T06:26:05;3.10;;;2.40;;
6111;SDS011;3086;48.802;9.394;2023-05-07T06:29:27;3.73;;;3.00;;
6111;SDS011;3086;48.802;9.394;2023-05-07T06:32:51;3.77;;;2.40;;
6111;SDS011;3086;48.802;9.394;2023-05-07T06:36:13;3.17;;;2.63;;
6111;SDS011;3086;48.802;9.394;2023-05-07T06:39:34;3.03;;;2.73;;
6111;SDS011;3086;48.802;9.394;2023-05-07T06:42:57;5.70;;;4.07;;
6111;SDS011;3086;48.802;9.394;2023-05-07T06:46:19;9.27;;;3.60;;
6111;SDS011;3086;48.802;9.394;2023-05-07T06:49:40;4.83;;;3.80;;
6111;SDS011;3086;48.802;9.394;2023-05-07T06:53:02;4.50;;;3.03;;
6111;SDS011;3086;48.802;9.394;2023-05-07T06:56:23;2.73;;;2.53;;
6111;SDS011;3086;48.802;9.394;2023-05-07T06:59:46;2.77;;;2.50;;
6111;SDS011;3086;48.802;9.394;2023-05-07T07:03:08;2.83;;;2.50;;
6111;SDS011;3086;48.802;9.394;2023-05-07T07:06:29;2.93;;;2.60;;
6111;SDS011;3086;48.802;9.394;2023-05-07T07:09:52;3.00;;;2.20;;
6111;SDS011;3086;48.802;9.394;2023-05-07T07:13:13;2.80;;;2.60;;
6111;SDS011;3086;48.802;9.394;2023-05-07T07:16:36;2.50;;;2.30;;
6111;SDS011;3086;48.802;9.394;2023-05-07T07:19:58;3.53;;;2.53;;
6111;SDS011;3086;48.802;9.394;2023-05-07T07:23:19;2.93;;;2.20;;
6111;SDS011;3086;48.802;9.394;2023-05-07T07:26:41;2.40;;;2.20;;
6111;SDS011;3086;48.802;9.394;2023-05-07T07:30:03;2.33;;;2.10;;
6111;SDS011;3086;48.802;9.394;2023-05-07T07:33:26;2.73;;;2.10;;
6111;SDS011;3086;48.802;9.394;2023-05-07T07:36:48;2.60;;;2.10;;
6111;SDS011;3086;48.802;9.394;2023-05-07T07:40:10;2.93;;;1.87;;
6111;SDS011;3086;48.802;9.394;2023-05-07T07:43:33;2.00;;;1.80;;
6111;SDS011;3086;48.802;9.394;2023-05-07T07:46:55;2.43;;;2.23;;
6111;SDS011;3086;48.802;9.394;2023-05-07T07:50:19;2.23;;;2.03;;
6111;SDS011;3086;48.802;9.394;2023-05-07T07:53:41;2.03;;;1.87;;
6111;SDS011;3086;48.802;9.394;2023-05-07T07:57:03;4.13;;;2.10;;
6111;SDS011;3086;48.802;9.394;2023-05-07T08:00:24;2.90;;;2.40;;
6111;SDS011;3086;48.802;9.394;2023-05-07T08:03:46;2.10;;;2.00;;
6111;SDS011;3086;48.802;9.394;2023-05-07T08:07:09;4.30;;;2.07;;
6111;SDS011;3086;48.802;9.394;2023-05-07T08:10:31;2.50;;;2.17;;
6111;SDS011;3086;48.802;9.394;2023-05-07T08:13:54;3.07;;;2.40;;
6111;SDS011;3086;48.802;9.394;2023-05-07T08:17:16;4.27;;;2.23;;
6111;SDS011;3086;48.802;9.394;2023-05-07T08:20:37;3.50;;;2.20;;
6111;SDS011;3086;48.802;9.394;2023-05-07T08:24:00;2.43;;;2.23;;
6111;SDS011;3086;48.802;9.394;2023-05-07T08:27:22;4.93;;;2.50;;
6111;SDS011;3086;48.802;9.394;2023-05-07T08:30:43;2.70;;;2.23;;
6111;SDS011;3086;48.802;9.394;2023-05-07T08:34:05;4.03;;;2.53;;
6111;SDS011;3086;48.802;9.394;2023-05-07T08:37:26;6.07;;;2.50;;
6111;SDS011;3086;48.802;9.394;2023-05-07T08:40:49;3.77;;;2.30;;
6111;SDS011;3086;48.802;9.394;2023-05-07T08:44:11;2.63;;;2.50;;
6111;SDS011;3086;48.802;9.394;2023-05-07T08:47:35;3.20;;;2.20;;
6111;SDS011;3086;48.802;9.394;2023-05-07T08:51:01;3.37;;;2.37;;
6111;SDS011;3086;48.802;9.394;2023-05-07T08:54:23;2.50;;;2.30;;
6111;SDS011;3086;48.802;9.394;2023-05-07T08:57:46;3.37;;;2.67;;
6111;SDS011;3086;48.802;9.394;2023-05-07T09:01:08;3.07;;;2.50;;
6111;SDS011;3086;48.802;9.394;2023-05-07T09:04:31;2.80;;;2.60;;
6111;SDS011;3086;48.802;9.394;2023-05-07T09:07:53;4.90;;;2.57;;
6111;SDS011;3086;48.802;9.394;2023-05-07T09:11:15;2.70;;;2.17;;
6111;SDS011;3086;48.802;9.394;2023-05-07T09:14:38;2.33;;;2.13;;
6111;SDS011;3086;48.802;9.394;2023-05-07T09:18:00;3.10;;;2.83;;
6111;SDS011;3086;48.802;9.394;2023-05-07T09:21:22;2.87;;;2.43;;
6111;SDS011;3086;48.802;9.394;2023-05-07T09:24:47;3.93;;;2.67;;
6111;SDS011;3086;48.802;9.394;2023-05-07T09:28:09;3.13;;;2.20;;
6111;SDS011;3086;48.802;9.394;2023-05-07T09:31:32;3.00;;;2.30;;
6111;SDS011;3086;48.802;9.394;2023-05-07T09:34:53;3.30;;;2.50;;
6111;SDS011;3086;48.802;9.394;2023-05-07T09:38:15;3.53;;;2.43;;
6111;SDS011;3086;48.802;9.394;2023-05-07T09:41:45;2.63;;;2.43;;
6111;SDS011;3086;48.802;9.394;2023-05-07T09:45:07;2.60;;;2.30;;
6111;SDS011;3086;48.802;9.394;2023-05-07T09:48:31;4.10;;;2.90;;
6111;SDS011;3086;48.802;9.394;2023-05-07T09:51:53;4.07;;;3.77;;
6111;SDS011;3086;48.802;9.394;2023-05-07T09:55:15;30.87;;;19.00;;
6111;SDS011;3086;48.802;9.394;2023-05-07T09:58:37;12.37;;;10.93;;
6111;SDS011;3086;48.802;9.394;2023-05-07T10:01:59;4.37;;;3.50;;
6111;SDS011;3086;48.802;9.394;2023-05-07T10:05:23;2.57;;;2.37;;
6111;SDS011;3086;48.802;9.394;2023-05-07T10:08:45;1.83;;;1.73;;
6111;SDS011;3086;48.802;9.394;2023-05-07T10:12:07;4.07;;;2.17;;
6111;SDS011;3086;48.802;9.394;2023-05-07T10:15:28;2.97;;;2.20;;
6111;SDS011;3086;48.802;9.394;2023-05-07T10:18:50;3.00;;;1.93;;
6111;SDS011;3086;48.802;9.394;2023-05-07T10:22:13;2.43;;;2.13;;
6111;SDS011;3086;48.802;9.394;2023-05-07T10:25:35;2.20;;;2.00;;
6111;SDS011;3086;48.802;9.394;2023-05-07T10:28:58;2.40;;;2.10;;
6111;SDS011;3086;48.802;9.394;2023-05-07T10:32:26;2.83;;;2.10;;
6111;SDS011;3086;48.802;9.394;2023-05-07T10:35:55;4.53;;;2.00;;
6111;SDS011;3086;48.802;9.394;2023-05-07T10:39:20;2.17;;;2.00;;
6111;SDS011;3086;48.802;9.394;2023-05-07T10:42:53;3.43;;;2.23;;
6111;SDS011;3086;48.802;9.394;2023-05-07T10:46:16;2.77;;;2.07;;
6111;SDS011;3086;48.802;9.394;2023-05-07T10:53:35;4.07;;;2.30;;
6111;SDS011;3086;48.802;9.394;2023-05-07T10:56:58;1.97;;;1.87;;
6111;SDS011;3086;48.802;9.394;2023-05-07T11:00:56;4.27;;;2.40;;
6111;SDS011;3086;48.802;9.394;2023-05-07T11:04:18;5.13;;;2.07;;
6111;SDS011;3086;48.802;9.394;2023-05-07T11:07:44;4.00;;;1.90;;
6111;SDS011;3086;48.802;9.394;2023-05-07T11:11:15;3.97;;;2.00;;
6111;SDS011;3086;48.802;9.394;2023-05-07T11:14:44;2.87;;;2.03;;
6111;SDS011;3086;48.802;9.394;2023-05-07T11:18:06;3.40;;;2.00;;
6111;SDS011;3086;48.802;9.394;2023-05-07T11:21:32;2.77;;;2.40;;
6111;SDS011;3086;48.802;9.394;2023-05-07T11:24:55;3.53;;;3.20;;
6111;SDS011;3086;48.802;9.394;2023-05-07T11:28:16;4.23;;;1.97;;
6111;SDS011;3086;48.802;9.394;2023-05-07T11:31:39;3.20;;;2.10;;
6111;SDS011;3086;48.802;9.394;2023-05-07T11:35:01;2.00;;;1.80;;
6111;SDS011;3086;48.802;9.394;2023-05-07T11:38:23;3.10;;;2.07;;
6111;SDS011;3086;48.802;9.394;2023-05-07T11:41:44;9.40;;;3.70;;
6111;SDS011;3086;48.802;9.394;2023-05-07T11:45:06;7.00;;;3.20;;
6111;SDS011;3086;48.802;9.394;2023-05-07T11:48:30;4.30;;;2.63;;
6111;SDS011;3086;48.802;9.394;2023-05-07T11:51:53;2.80;;;2.50;;
6111;SDS011;3086;48.802;9.394;2023-05-07T11:55:17;4.63;;;2.53;;
6111;SDS011;3086;48.802;9.394;2023-05-07T11:58:42;6.83;;;3.60;;
6111;SDS011;3086;48.802;9.394;2023-05-07T12:02:04;3.20;;;2.90;;
6111;SDS011;3086;48.802;9.394;2023-05-07T12:05:27;3.67;;;2.60;;
6111;SDS011;3086;48.802;9.394;2023-05-07T12:08:49;3.40;;;2.60;;
6111;SDS011;3086;48.802;9.394;2023-05-07T12:12:11;4.30;;;3.90;;
6111;SDS011;3086;48.802;9.394;2023-05-07T12:15:35;4.37;;;3.57;;
6111;SDS011;3086;48.802;9.394;2023-05-07T12:18:56;4.63;;;3.53;;
6111;SDS011;3086;48.802;9.394;2023-05-07T12:22:20;4.83;;;2.93;;
6111;SDS011;3086;48.802;9.394;2023-05-07T12:25:42;3.27;;;2.70;;
6111;SDS011;3086;48.802;9.394;2023-05-07T12:29:06;3.73;;;2.80;;
6111;SDS011;3086;48.802;9.394;2023-05-07T12:32:28;3.80;;;3.50;;
6111;SDS011;3086;48.802;9.394;2023-05-07T12:35:50;4.10;;;3.53;;
6111;SDS011;3086;48.802;9.394;2023-05-07T12:39:12;3.80;;;3.50;;
6111;SDS011;3086;48.802;9.394;2023-05-07T12:42:35;4.33;;;3.50;;
6111;SDS011;3086;48.802;9.394;2023-05-07T12:45:59;3.90;;;3.60;;
6111;SDS011;3086;48.802;9.394;2023-05-07T12:49:21;5.97;;;3.40;;
6111;SDS011;3086;48.802;9.394;2023-05-07T12:52:45;7.10;;;4.17;;
6111;SDS011;3086;48.802;9.394;2023-05-07T12:56:10;11.50;;;4.90;;
6111;SDS011;3086;48.802;9.394;2023-05-07T12:59:32;3.27;;;2.37;;
6111;SDS011;3086;48.802;9.394;2023-05-07T13:02:54;3.93;;;2.70;;
6111;SDS011;3086;48.802;9.394;2023-05-07T13:06:16;4.33;;;3.30;;
6111;SDS011;3086;48.802;9.394;2023-05-07T13:09:37;5.43;;;2.93;;
6111;SDS011;3086;48.802;9.394;2023-05-07T13:13:00;3.93;;;2.70;;
6111;SDS011;3086;48.802;9.394;2023-05-07T13:16:22;3.47;;;2.60;;
6111;SDS011;3086;48.802;9.394;2023-05-07T13:19:43;3.67;;;3.20;;
6111;SDS011;3086;48.802;9.394;2023-05-07T13:23:05;3.40;;;2.90;;
6111;SDS011;3086;48.802;9.394;2023-05-07T13:26:26;3.47;;;3.17;;
6111;SDS011;3086;48.802;9.394;2023-05-07T13:29:49;3.67;;;3.33;;
6111;SDS011;3086;48.802;9.394;2023-05-07T13:33:11;4.13;;;3.17;;
6111;SDS011;3086;48.802;9.394;2023-05-07T13:36:32;3.27;;;2.80;;
6111;SDS011;3086;48.802;9.394;2023-05-07T13:39:57;4.43;;;2.53;;
6111;SDS011;3086;48.802;9.394;2023-05-07T13:43:18;4.60;;;1.40;;
6111;SDS011;3086;48.802;9.394;2023-05-07T13:46:41;2.30;;;2.03;;
6111;SDS011;3086;48.802;9.394;2023-05-07T13:50:03;2.53;;;1.70;;
6111;SDS011;3086;48.802;9.394;2023-05-07T13:53:25;1.97;;;1.80;;
6111;SDS011;3086;48.802;9.394;2023-05-07T13:56:46;2.70;;;1.90;;
6111;SDS011;3086;48.802;9.394;2023-05-07T14:00:09;2.00;;;1.90;;
6111;SDS011;3086;48.802;9.394;2023-05-07T14:03:32;2.50;;;2.03;;
6111;SDS011;3086;48.802;9.394;2023-05-07T14:06:55;2.43;;;1.70;;
6111;SDS011;3086;48.802;9.394;2023-05-07T14:10:16;4.07;;;1.70;;
6111;SDS011;3086;48.802;9.394;2023-05-07T14:13:38;1.83;;;1.70;;
6111;SDS011;3086;48.802;9.394;2023-05-07T14:16:59;2.43;;;1.50;;
6111;SDS011;3086;48.802;9.394;2023-05-07T14:20:22;1.70;;;1.60;;
6111;SDS011;3086;48.802;9.394;2023-05-07T14:23:44;2.67;;;1.80;;
6111;SDS011;3086;48.802;9.394;2023-05-07T14:27:05;1.80;;;1.70;;
6111;SDS011;3086;48.802;9.394;2023-05-07T14:30:27;2.30;;;1.60;;
6111;SDS011;3086;48.802;9.394;2023-05-07T14:33:48;3.13;;;1.80;;
6111;SDS011;3086;48.802;9.394;2023-05-07T14:37:12;3.17;;;1.90;;
6111;SDS011;3086;48.802;9.394;2023-05-07T14:40:34;2.17;;;1.90;;
6111;SDS011;3086;48.802;9.394;2023-05-07T14:43:55;4.57;;;2.07;;
6111;SDS011;3086;48.802;9.394;2023-05-07T14:47:18;3.90;;;2.30;;
6111;SDS011;3086;48.802;9.394;2023-05-07T14:50:40;2.43;;;2.07;;
6111;SDS011;3086;48.802;9.394;2023-05-07T14:54:03;2.40;;;2.20;;
6111;SDS011;3086;48.802;9.394;2023-05-07T14:57:24;2.50;;;2.30;;
6111;SDS011;3086;48.802;9.394;2023-05-07T15:00:47;3.17;;;2.87;;
6111;SDS011;3086;48.802;9.394;2023-05-07T15:04:08;1.77;;;1.67;;
6111;SDS011;3086;48.802;9.394;2023-05-07T15:07:30;2.50;;;2.30;;
6111;SDS011;3086;48.802;9.394;2023-05-07T15:10:54;2.00;;;1.90;;
6111;SDS011;3086;48.802;9.394;2023-05-07T15:14:15;3.70;;;2.00;;
6111;SDS011;3086;48.802;9.394;2023-05-07T15:17:37;3.13;;;1.80;;
6111;SDS011;3086;48.802;9.394;2023-05-07T15:20:58;2.33;;;2.17;;
6111;SDS011;3086;48.802;9.394;2023-05-07T15:24:20;2.53;;;1.97;;
6111;SDS011;3086;48.802;9.394;2023-05-07T15:27:43;2.13;;;2.03;;
6111;SDS011;3086;48.802;9.394;2023-05-07T15:31:04;3.80;;;2.50;;
6111;SDS011;3086;48.802;9.394;2023-05-07T15:34:27;3.40;;;2.70;;
6111;SDS011;3086;48.802;9.394;2023-05-07T15:37:48;2.93;;;2.50;;
6111;SDS011;3086;48.802;9.394;2023-05-07T15:41:10;3.93;;;2.70;;
6111;SDS011;3086;48.802;9.394;2023-05-07T15:44:33;5.23;;;2.97;;
6111;SDS011;3086;48.802;9.394;2023-05-07T15:47:55;4.10;;;2.40;;
6111;SDS011;3086;48.802;9.394;2023-05-07T15:51:16;3.17;;;2.63;;
6111;SDS011;3086;48.802;9.394;2023-05-07T15:54:38;8.07;;;2.73;;
6111;SDS011;3086;48.802;9.394;2023-05-07T15:57:59;3.17;;;2.80;;
6111;SDS011;3086;48.802;9.394;2023-05-07T16:01:23;4.30;;;2.53;;
6111;SDS011;3086;48.802;9.394;2023-05-07T16:04:44;3.50;;;3.10;;
6111;SDS011;3086;48.802;9.394;2023-05-07T16:08:06;3.37;;;3.00;;
6111;SDS011;3086;48.802;9.394;2023-05-07T16:11:28;3.30;;;3.00;;
6111;SDS011;3086;48.802;9.394;2023-05-07T16:14:50;3.30;;;3.00;;
6111;SDS011;3086;48.802;9.394;2023-05-07T16:18:13;4.70;;;2.60;;
6111;SDS011;3086;48.802;9.394;2023-05-07T16:21:35;3.27;;;2.70;;
6111;SDS011;3086;48.802;9.394;2023-05-07T16:24:57;3.87;;;3.13;;
6111;SDS011;3086;48.802;9.394;2023-05-07T16:28:18;2.97;;;2.77;;
6111;SDS011;3086;48.802;9.394;2023-05-07T16:31:40;4.23;;;2.90;;
6111;SDS011;3086;48.802;9.394;2023-05-07T16:35:03;3.37;;;2.93;;
6111;SDS011;3086;48.802;9.394;2023-05-07T16:38:26;3.70;;;2.80;;
6111;SDS011;3086;48.802;9.394;2023-05-07T16:41:50;3.23;;;2.93;;
6111;SDS011;3086;48.802;9.394;2023-05-07T16:45:11;3.73;;;3.27;;
6111;SDS011;3086;48.802;9.394;2023-05-07T16:48:33;4.37;;;3.40;;
6111;SDS011;3086;48.802;9.394;2023-05-07T16:51:55;4.40;;;3.10;;
6111;SDS011;3086;48.802;9.394;2023-05-07T16:55:17;3.93;;;3.53;;
6111;SDS011;3086;48.802;9.394;2023-05-07T16:58:38;4.10;;;3.50;;
6111;SDS011;3086;48.802;9.394;2023-05-07T17:02:00;3.97;;;3.57;;
6111;SDS011;3086;48.802;9.394;2023-05-07T17:05:21;4.93;;;3.37;;
6111;SDS011;3086;48.802;9.394;2023-05-07T17:08:44;4.60;;;3.43;;
6111;SDS011;3086;48.802;9.394;2023-05-07T17:12:06;5.43;;;4.07;;
6111;SDS011;3086;48.802;9.394;2023-05-07T17:15:27;4.60;;;4.20;;
6111;SDS011;3086;48.802;9.394;2023-05-07T17:18:49;4.77;;;3.90;;
6111;SDS011;3086;48.802;9.394;2023-05-07T17:22:10;6.37;;;4.67;;
6111;SDS011;3086;48.802;9.394;2023-05-07T17:25:34;4.63;;;4.23;;
6111;SDS011;3086;48.802;9.394;2023-05-07T17:28:56;5.10;;;4.60;;
6111;SDS011;3086;48.802;9.394;2023-05-07T17:32:17;5.43;;;4.93;;
6111;SDS011;3086;48.802;9.394;2023-05-07T17:35:39;5.40;;;4.90;;
6111;SDS011;3086;48.802;9.394;2023-05-07T17:39:00;5.77;;;5.23;;
6111;SDS011;3086;48.802;9.394;2023-05-07T17:42:23;6.63;;;5.03;;
6111;SDS011;3086;48.802;9.394;2023-05-07T17:45:45;7.47;;;5.07;;
6111;SDS011;3086;48.802;9.394;2023-05-07T17:49:07;5.07;;;4.40;;
6111;SDS011;3086;48.802;9.394;2023-05-07T17:52:28;5.13;;;4.03;;
6111;SDS011;3086;48.802;9.394;2023-05-07T17:55:51;4.20;;;3.10;;
6111;SDS011;3086;48.802;9.394;2023-05-07T17:59:14;4.07;;;3.30;;
6111;SDS011;3086;48.802;9.394;2023-05-07T18:02:35;5.23;;;3.30;;
6111;SDS011;3086;48.802;9.394;2023-05-07T18:05:58;4.33;;;3.53;;
6111;SDS011;3086;48.802;9.394;2023-05-07T18:09:20;3.97;;;3.60;;
6111;SDS011;3086;48.802;9.394;2023-05-07T18:12:41;4.70;;;4.20;;
6111;SDS011;3086;48.802;9.394;2023-05-07T18:16:04;4.50;;;4.10;;
6111;SDS011;3086;48.802;9.394;2023-05-07T18:19:26;4.77;;;4.37;;
6111;SDS011;3086;48.802;9.394;2023-05-07T18:22:48;4.83;;;4.40;;
6111;SDS011;3086;48.802;9.394;2023-05-07T18:26:09;5.40;;;4.80;;
6111;SDS011;3086;48.802;9.394;2023-05-07T18:29:31;5.93;;;4.83;;
6111;SDS011;3086;48.802;9.394;2023-05-07T18:32:54;5.73;;;4.53;;
6111;SDS011;3086;48.802;9.394;2023-05-07T18:36:15;4.90;;;4.47;;
6111;SDS011;3086;48.802;9.394;2023-05-07T18:39:37;4.33;;;3.93;;
6111;SDS011;3086;48.802;9.394;2023-05-07T18:42:59;4.53;;;4.07;;
6111;SDS011;3086;48.802;9.394;2023-05-07T18:46:25;3.77;;;3.47;;
6111;SDS011;3086;48.802;9.394;2023-05-07T18:49:49;3.70;;;3.40;;
6111;SDS011;3086;48.802;9.394;2023-05-07T18:53:11;4.73;;;3.90;;
6111;SDS011;3086;48.802;9.394;2023-05-07T18:56:32;5.50;;;3.80;;
6111;SDS011;3086;48.802;9.394;2023-05-07T18:59:54;4.90;;;4.40;;
6111;SDS011;3086;48.802;9.394;2023-05-07T19:03:16;5.87;;;4.60;;
6111;SDS011;3086;48.802;9.394;2023-05-07T19:06:38;4.87;;;4.17;;
6111;SDS011;3086;48.802;9.394;2023-05-07T19:10:00;6.87;;;4.73;;
6111;SDS011;3086;48.802;9.394;2023-05-07T19:13:21;5.10;;;4.47;;
6111;SDS011;3086;48.802;9.394;2023-05-07T19:16:44;7.10;;;4.70;;
6111;SDS011;3086;48.802;9.394;2023-05-07T19:20:06;4.40;;;4.00;;
6111;SDS011;3086;48.802;9.394;2023-05-07T19:23:30;5.73;;;4.33;;
6111;SDS011;3086;48.802;9.394;2023-05-07T19:26:52;4.90;;;4.50;;
6111;SDS011;3086;48.802;9.394;2023-05-07T19:30:14;5.37;;;4.40;;
6111;SDS011;3086;48.802;9.394;2023-05-07T19:33:36;4.70;;;4.30;;
6111;SDS011;3086;48.802;9.394;2023-05-07T19:36:57;6.93;;;4.97;;
6111;SDS011;3086;48.802;9.394;2023-05-07T19:40:20;4.97;;;4.53;;
6111;SDS011;3086;48.802;9.394;2023-05-07T19:43:41;4.60;;;4.20;;
6111;SDS011;3086;48.802;9.394;2023-05-07T19:47:03;5.37;;;4.13;;
6111;SDS011;3086;48.802;9.394;2023-05-07T19:50:25;4.73;;;4.20;;
6111;SDS011;3086;48.802;9.394;2023-05-07T19:53:47;5.73;;;3.80;;
6111;SDS011;3086;48.802;9.394;2023-05-07T19:57:10;5.03;;;4.50;;
6111;SDS011;3086;48.802;9.394;2023-05-07T20:00:31;5.57;;;4.53;;
6111;SDS011;3086;48.802;9.394;2023-05-07T20:03:53;4.20;;;3.90;;
6111;SDS011;3086;48.802;9.394;2023-05-07T20:07:15;4.20;;;3.80;;
6111;SDS011;3086;48.802;9.394;2023-05-07T20:10:37;5.43;;;4.07;;
6111;SDS011;3086;48.802;9.394;2023-05-07T20:14:00;4.63;;;3.87;;
6111;SDS011;3086;48.802;9.394;2023-05-07T20:17:23;8.20;;;4.80;;
6111;SDS011;3086;48.802;9.394;2023-05-07T20:20:45;6.67;;;4.80;;
6111;SDS011;3086;48.802;9.394;2023-05-07T20:24:07;6.87;;;5.00;;
6111;SDS011;3086;48.802;9.394;2023-05-07T20:27:28;5.57;;;4.97;;
6111;SDS011;3086;48.802;9.394;2023-05-07T20:30:54;6.83;;;4.63;;
6111;SDS011;3086;48.802;9.394;2023-05-07T20:34:15;6.10;;;4.50;;
6111;SDS011;3086;48.802;9.394;2023-05-07T20:37:37;7.27;;;5.27;;
6111;SDS011;3086;48.802;9.394;2023-05-07T20:41:03;5.43;;;4.90;;
6111;SDS011;3086;48.802;9.394;2023-05-07T20:44:26;5.67;;;5.17;;
6111;SDS011;3086;48.802;9.394;2023-05-07T20:47:50;5.43;;;4.93;;
6111;SDS011;3086;48.802;9.394;2023-05-07T20:51:19;7.50;;;6.10;;
6111;SDS011;3086;48.802;9.394;2023-05-07T20:54:40;9.40;;;5.70;;
6111;SDS011;3086;48.802;9.394;2023-05-07T20:58:03;5.60;;;4.97;;
6111;SDS011;3086;48.802;9.394;2023-05-07T21:01:32;7.00;;;4.97;;